createdAt,value
2022-11-15T00:00:47.363Z,65.87
2022-11-15T00:01:47.428Z,62.18
2022-11-15T00:02:47.340Z,62.32
2022-11-15T00:03:47.368Z,60.87
2022-11-15T00:04:47.309Z,68.40
2022-11-15T00:05:47.311Z,66.68
2022-11-15T00:06:47.344Z,69.70
2022-11-15T00:07:55.721Z,62.04
2022-11-15T00:08:49.288Z,58.10
2022-11-15T00:09:47.277Z,66.59
2022-11-15T00:10:47.292Z,62.66
2022-11-15T00:11:47.236Z,67.36
2022-11-15T00:12:47.217Z,58.82
2022-11-15T00:13:47.248Z,59.31
2022-11-15T00:14:47.210Z,51.96
2022-11-15T00:15:47.214Z,69.51
2022-11-15T00:16:47.201Z,63.18
2022-11-15T00:17:47.212Z,68.39
2022-11-15T00:18:50.520Z,69.91
2022-11-15T00:19:48.144Z,65.87
2022-11-15T00:20:47.172Z,65.01
2022-11-15T00:21:47.965Z,54.42
2022-11-15T00:22:47.128Z,61.41
2022-11-15T00:23:47.124Z,68.21
2022-11-15T00:24:47.106Z,63.92
2022-11-15T00:25:47.109Z,62.47
2022-11-15T00:26:47.077Z,59.62
2022-11-15T00:27:47.080Z,64.23
2022-11-15T00:28:47.064Z,61.54
2022-11-15T00:29:47.050Z,72.43
2022-11-15T00:30:47.034Z,70.77
2022-11-15T00:31:47.033Z,69.18
2022-11-15T00:32:47.078Z,62.07
2022-11-15T00:33:47.003Z,62.22
2022-11-15T00:34:46.992Z,66.32
2022-11-15T00:35:46.993Z,65.32
2022-11-15T00:36:46.970Z,69.00
2022-11-15T00:37:46.961Z,67.12
2022-11-15T00:38:46.970Z,67.68
2022-11-15T00:39:46.953Z,67.79
2022-11-15T00:40:46.917Z,60.89
2022-11-15T00:41:46.954Z,67.84
2022-11-15T00:42:46.901Z,59.05
2022-11-15T00:43:46.885Z,66.80
2022-11-15T00:44:46.875Z,64.49
2022-11-15T00:45:46.883Z,65.89
2022-11-15T00:46:46.878Z,65.51
2022-11-15T00:47:46.871Z,64.95
2022-11-15T00:48:46.819Z,65.72
2022-11-15T00:49:46.852Z,63.93
2022-11-15T00:50:46.884Z,56.45
2022-11-15T00:51:46.794Z,60.72
2022-11-15T00:52:46.823Z,63.31
2022-11-15T00:53:46.761Z,48.27
2022-11-15T00:54:46.790Z,65.00
2022-11-15T00:55:46.773Z,62.43
2022-11-15T00:56:46.750Z,61.19
2022-11-15T00:57:46.750Z,67.12
2022-11-15T00:58:46.775Z,60.70
2022-11-15T00:59:46.730Z,62.45
2022-11-15T01:00:46.768Z,67.12
2022-11-15T01:01:46.694Z,59.74
2022-11-15T01:02:46.936Z,71.12
2022-11-15T01:03:46.663Z,61.68
2022-11-15T01:04:46.677Z,61.16
2022-11-15T01:05:46.668Z,62.17
2022-11-15T01:06:46.671Z,66.56
2022-11-15T01:07:46.618Z,69.55
2022-11-15T01:08:46.651Z,68.30
2022-11-15T01:09:46.628Z,70.37
2022-11-15T01:10:46.651Z,66.75
2022-11-15T01:11:46.583Z,64.04
2022-11-15T01:12:46.562Z,61.92
2022-11-15T01:13:46.558Z,63.98
2022-11-15T01:14:50.450Z,62.35
2022-11-15T01:15:46.547Z,66.48
2022-11-15T01:16:47.403Z,67.43
2022-11-15T01:17:46.521Z,58.54
2022-11-15T01:18:48.644Z,62.19
2022-11-15T01:19:46.498Z,72.30
2022-11-15T01:20:46.520Z,68.62
2022-11-15T01:21:46.459Z,58.97
2022-11-15T01:22:46.490Z,61.82
2022-11-15T01:23:46.562Z,65.16
2022-11-15T01:24:46.447Z,58.21
2022-11-15T01:25:46.407Z,62.81
2022-11-15T01:26:47.464Z,64.66
2022-11-15T01:27:46.424Z,53.18
2022-11-15T01:28:46.392Z,67.99
2022-11-15T01:29:46.567Z,50.11
2022-11-15T01:30:47.681Z,68.46
2022-11-15T01:31:46.383Z,57.49
2022-11-15T01:32:46.773Z,66.05
2022-11-15T01:33:49.684Z,64.68
2022-11-15T01:34:49.124Z,68.98
2022-11-15T01:35:48.556Z,57.91
2022-11-15T01:36:46.321Z,69.15
2022-11-15T01:37:49.614Z,69.71
2022-11-15T01:38:47.312Z,70.87
2022-11-15T01:39:51.597Z,64.64
2022-11-15T01:40:47.345Z,67.93
2022-11-15T01:41:46.258Z,55.34
2022-11-15T01:42:49.234Z,65.62
2022-11-15T01:43:49.320Z,64.55
2022-11-15T01:44:47.423Z,62.77
2022-11-15T01:45:46.599Z,54.84
2022-11-15T01:46:46.195Z,64.07
2022-11-15T01:47:46.189Z,63.23
2022-11-15T01:48:47.208Z,62.24
2022-11-15T01:49:46.141Z,58.05
2022-11-15T01:50:48.362Z,53.65
2022-11-15T01:51:46.990Z,66.62
2022-11-15T01:52:48.384Z,63.59
2022-11-15T01:53:49.469Z,66.18
2022-11-15T01:54:46.178Z,65.66
2022-11-15T01:55:48.473Z,58.11
2022-11-15T01:56:47.282Z,57.07
2022-11-15T01:57:46.075Z,59.97
2022-11-15T01:58:48.218Z,60.87
2022-11-15T01:59:47.058Z,63.78
2022-11-15T02:00:46.087Z,67.26
2022-11-15T02:01:48.109Z,61.62
2022-11-15T02:02:46.757Z,54.82
2022-11-15T02:03:50.765Z,62.51
2022-11-15T02:04:49.319Z,62.62
2022-11-15T02:05:46.085Z,63.50
2022-11-15T02:06:49.458Z,68.05
2022-11-15T02:07:45.968Z,70.44
2022-11-15T02:08:50.631Z,67.52
2022-11-15T02:09:48.285Z,66.97
2022-11-15T02:10:51.234Z,65.84
2022-11-15T02:11:50.162Z,60.20
2022-11-15T02:12:49.467Z,60.95
2022-11-15T02:13:51.350Z,61.41
2022-11-15T02:14:45.905Z,59.77
2022-11-15T02:15:47.270Z,64.03
2022-11-15T02:16:47.028Z,64.71
2022-11-15T02:17:48.898Z,70.76
2022-11-15T02:18:45.854Z,65.15
2022-11-15T02:19:46.814Z,65.73
2022-11-15T02:20:48.115Z,64.45
2022-11-15T02:21:52.282Z,69.73
2022-11-15T02:22:45.823Z,68.42
2022-11-15T02:23:45.822Z,66.77
2022-11-15T02:24:47.586Z,62.60
2022-11-15T02:25:45.774Z,66.17
2022-11-15T02:26:45.758Z,64.45
2022-11-15T02:27:49.081Z,63.96
2022-11-15T02:28:47.027Z,68.31
2022-11-15T02:29:50.086Z,65.31
2022-11-15T02:30:45.979Z,67.63
2022-11-15T02:31:46.713Z,69.90
2022-11-15T02:32:46.814Z,68.01
2022-11-15T02:33:51.940Z,55.42
2022-11-15T02:34:45.685Z,62.95
2022-11-15T02:35:48.820Z,59.68
2022-11-15T02:36:50.469Z,68.66
2022-11-15T02:37:48.479Z,72.04
2022-11-15T02:38:48.868Z,66.15
2022-11-15T02:39:45.618Z,58.26
2022-11-15T02:40:47.933Z,66.97
2022-11-15T02:41:52.364Z,63.80
2022-11-15T02:42:45.607Z,65.23
2022-11-15T02:43:48.067Z,69.07
2022-11-15T02:44:46.578Z,71.12
2022-11-15T02:45:45.584Z,69.75
2022-11-15T02:46:48.999Z,63.01
2022-11-15T02:47:48.977Z,67.84
2022-11-15T02:48:47.690Z,71.82
2022-11-15T02:49:46.508Z,59.93
2022-11-15T02:50:47.695Z,69.41
2022-11-15T02:51:47.058Z,66.42
2022-11-15T02:52:46.443Z,63.56
2022-11-15T02:53:46.696Z,64.18
2022-11-15T02:54:46.870Z,70.29
2022-11-15T02:55:46.998Z,62.57
2022-11-15T02:56:48.225Z,61.86
2022-11-15T02:57:46.437Z,59.85
2022-11-15T02:58:48.556Z,68.38
2022-11-15T02:59:45.411Z,66.02
2022-11-15T03:00:47.660Z,68.08
2022-11-15T03:01:45.383Z,52.94
2022-11-15T03:02:47.513Z,60.82
2022-11-15T03:03:47.500Z,63.95
2022-11-15T03:04:48.108Z,68.62
2022-11-15T03:05:48.133Z,67.97
2022-11-15T03:06:47.537Z,68.26
2022-11-15T03:07:48.327Z,64.58
2022-11-15T03:08:46.160Z,70.64
2022-11-15T03:09:48.951Z,64.77
2022-11-15T03:10:50.688Z,66.96
2022-11-15T03:11:48.200Z,61.90
2022-11-15T03:12:47.485Z,60.63
2022-11-15T03:13:47.193Z,70.84
2022-11-15T03:14:46.252Z,70.93
2022-11-15T03:15:49.952Z,69.72
2022-11-15T03:16:48.236Z,67.96
2022-11-15T03:17:46.980Z,74.75
2022-11-15T03:18:48.681Z,66.27
2022-11-15T03:19:45.226Z,67.30
2022-11-15T03:20:45.213Z,68.45
2022-11-15T03:21:47.198Z,72.95
2022-11-15T03:22:48.317Z,70.13
2022-11-15T03:23:46.229Z,65.61
2022-11-15T03:24:47.405Z,67.98
2022-11-15T03:25:48.189Z,66.33
2022-11-15T03:26:46.007Z,65.90
2022-11-15T03:27:48.717Z,64.26
2022-11-15T03:28:47.480Z,66.81
2022-11-15T03:29:46.739Z,63.72
2022-11-15T03:30:47.444Z,67.49
2022-11-15T03:31:50.437Z,68.16
2022-11-15T03:32:48.173Z,70.10
2022-11-15T03:33:45.042Z,61.76
2022-11-15T03:34:47.121Z,72.97
2022-11-15T03:35:45.025Z,73.11
2022-11-15T03:36:47.198Z,70.73
2022-11-15T03:37:45.080Z,68.18
2022-11-15T03:38:46.213Z,71.64
2022-11-15T03:39:47.497Z,74.00
2022-11-15T03:40:44.949Z,70.65
2022-11-15T03:41:45.849Z,74.39
2022-11-15T03:42:48.071Z,71.51
2022-11-15T03:43:45.908Z,69.05
2022-11-15T03:44:44.930Z,72.28
2022-11-15T03:45:47.802Z,69.95
2022-11-15T03:46:44.918Z,70.97
2022-11-15T03:47:49.826Z,72.48
2022-11-15T03:48:44.938Z,73.89
2022-11-15T03:49:49.976Z,73.79
2022-11-15T03:50:46.947Z,71.61
2022-11-15T03:51:47.846Z,72.83
2022-11-15T03:52:48.180Z,73.10
2022-11-15T03:53:44.802Z,70.86
2022-11-15T03:54:46.007Z,72.99
2022-11-15T03:55:45.842Z,68.11
2022-11-15T03:56:47.982Z,70.82
2022-11-15T03:57:44.766Z,69.60
2022-11-15T03:58:47.907Z,72.02
2022-11-15T03:59:46.031Z,73.76
2022-11-15T04:00:47.185Z,72.10
2022-11-15T04:01:47.398Z,71.73
2022-11-15T04:02:44.758Z,75.37
2022-11-15T04:03:48.751Z,72.22
2022-11-15T04:04:44.689Z,71.99
2022-11-15T04:05:45.819Z,71.62
2022-11-15T04:06:46.081Z,72.71
2022-11-15T04:07:44.654Z,73.61
2022-11-15T04:08:45.939Z,72.90
2022-11-15T04:09:46.579Z,70.86
2022-11-15T04:10:46.062Z,71.18
2022-11-15T04:11:44.615Z,63.30
2022-11-15T04:12:45.636Z,70.69
2022-11-15T04:13:49.301Z,71.07
2022-11-15T04:14:45.560Z,73.19
2022-11-15T04:15:46.649Z,74.29
2022-11-15T04:16:44.581Z,71.82
2022-11-15T04:17:44.552Z,70.82
2022-11-15T04:18:45.932Z,71.96
2022-11-15T04:19:45.613Z,71.32
2022-11-15T04:20:46.001Z,74.03
2022-11-15T04:21:49.628Z,71.19
2022-11-15T04:22:45.472Z,71.41
2022-11-15T04:23:44.661Z,73.68
2022-11-15T04:24:45.404Z,71.67
2022-11-15T04:25:45.456Z,73.49
2022-11-15T04:26:48.265Z,75.17
2022-11-15T04:27:46.721Z,74.69
2022-11-15T04:28:47.350Z,75.62
2022-11-15T04:29:48.907Z,73.93
2022-11-15T04:30:45.457Z,71.81
2022-11-15T04:31:45.469Z,74.18
2022-11-15T04:32:48.828Z,74.59
2022-11-15T04:33:46.565Z,73.72
2022-11-15T04:34:44.412Z,75.55
2022-11-15T04:35:45.631Z,75.45
2022-11-15T04:36:45.204Z,75.91
2022-11-15T04:37:49.246Z,76.73
2022-11-15T04:38:47.317Z,73.98
2022-11-15T04:39:46.076Z,75.42
2022-11-15T04:40:46.686Z,74.50
2022-11-15T04:41:45.573Z,76.40
2022-11-15T04:42:47.138Z,74.56
2022-11-15T04:43:46.378Z,74.12
2022-11-15T04:44:46.693Z,75.27
2022-11-15T04:45:46.526Z,76.64
2022-11-15T04:46:47.947Z,75.02
2022-11-15T04:47:44.237Z,73.86
2022-11-15T04:48:44.294Z,76.44
2022-11-15T04:49:45.943Z,75.64
2022-11-15T04:50:46.285Z,74.83
2022-11-15T04:51:47.106Z,74.89
2022-11-15T04:52:44.248Z,75.51
2022-11-15T04:53:48.342Z,73.09
2022-11-15T04:54:46.534Z,75.48
2022-11-15T04:55:48.546Z,74.69
2022-11-15T04:56:51.454Z,74.82
2022-11-15T04:57:46.114Z,75.56
2022-11-15T04:58:44.101Z,77.48
2022-11-15T04:59:44.104Z,75.74
2022-11-15T05:00:46.075Z,75.10
2022-11-15T05:01:46.814Z,72.79
2022-11-15T05:02:46.670Z,75.40
2022-11-15T05:03:44.042Z,74.27
2022-11-15T05:04:44.034Z,74.92
2022-11-15T05:05:48.404Z,75.64
2022-11-15T05:06:46.577Z,74.78
2022-11-15T05:07:44.004Z,76.21
2022-11-15T05:08:48.166Z,76.61
2022-11-15T05:09:44.013Z,75.65
2022-11-15T05:10:45.565Z,76.84
2022-11-15T05:11:44.188Z,75.90
2022-11-15T05:12:48.289Z,75.49
2022-11-15T05:13:43.970Z,77.86
2022-11-15T05:14:43.948Z,77.08
2022-11-15T05:15:48.128Z,73.62
2022-11-15T05:16:44.004Z,75.83
2022-11-15T05:17:45.053Z,78.74
2022-11-15T05:18:43.897Z,76.10
2022-11-15T05:19:43.878Z,77.71
2022-11-15T05:20:43.869Z,77.13
2022-11-15T05:21:46.277Z,78.23
2022-11-15T05:22:48.543Z,75.21
2022-11-15T05:23:45.009Z,78.25
2022-11-15T05:24:45.894Z,78.19
2022-11-15T05:25:43.801Z,77.10
2022-11-15T05:26:45.011Z,77.12
2022-11-15T05:27:47.425Z,77.11
2022-11-15T05:28:44.333Z,75.99
2022-11-15T05:29:45.876Z,77.57
2022-11-15T05:30:43.765Z,76.77
2022-11-15T05:31:43.765Z,77.35
2022-11-15T05:32:43.731Z,78.56
2022-11-15T05:33:54.809Z,78.01
2022-11-15T05:34:43.754Z,78.62
2022-11-15T05:35:45.671Z,77.69
2022-11-15T05:36:44.356Z,77.70
2022-11-15T05:37:46.659Z,79.51
2022-11-15T05:38:43.669Z,78.34
2022-11-15T05:39:46.087Z,80.22
2022-11-15T05:40:43.667Z,77.13
2022-11-15T05:41:43.674Z,79.38
2022-11-15T05:42:43.634Z,79.03
2022-11-15T05:43:43.621Z,75.77
2022-11-15T05:44:43.601Z,79.28
2022-11-15T05:45:43.598Z,77.71
2022-11-15T05:46:43.631Z,77.67
2022-11-15T05:47:44.962Z,78.94
2022-11-15T05:48:44.723Z,78.18
2022-11-15T05:49:43.560Z,79.08
2022-11-15T05:50:43.547Z,78.75
2022-11-15T05:51:43.528Z,76.21
2022-11-15T05:52:43.587Z,77.71
2022-11-15T05:53:43.511Z,78.28
2022-11-15T05:54:43.544Z,78.73
2022-11-15T05:55:44.474Z,78.07
2022-11-15T05:56:45.350Z,77.39
2022-11-15T05:57:46.303Z,76.92
2022-11-15T05:58:45.650Z,78.33
2022-11-15T05:59:45.387Z,76.89
2022-11-15T06:00:46.938Z,78.14
2022-11-15T06:01:48.010Z,77.04
2022-11-15T06:02:43.440Z,78.88
2022-11-15T06:03:43.478Z,78.27
2022-11-15T06:04:45.459Z,77.26
2022-11-15T06:05:43.389Z,75.95
2022-11-15T06:06:44.373Z,76.27
2022-11-15T06:07:43.360Z,77.93
2022-11-15T06:08:43.376Z,78.94
2022-11-15T06:09:44.372Z,77.76
2022-11-15T06:10:43.341Z,75.50
2022-11-15T06:11:44.468Z,77.13
2022-11-15T06:12:43.317Z,78.02
2022-11-15T06:13:45.492Z,78.31
2022-11-15T06:14:46.233Z,78.90
2022-11-15T06:15:43.293Z,78.90
2022-11-15T06:16:43.273Z,78.98
2022-11-15T06:17:46.693Z,78.52
2022-11-15T06:18:44.664Z,78.32
2022-11-15T06:19:43.260Z,78.64
2022-11-15T06:20:43.549Z,76.19
2022-11-15T06:21:43.272Z,78.07
2022-11-15T06:22:43.212Z,77.60
2022-11-15T06:23:44.188Z,78.30
2022-11-15T06:24:43.184Z,78.57
2022-11-15T06:25:43.184Z,78.69
2022-11-15T06:26:43.165Z,78.09
2022-11-15T06:27:43.157Z,79.15
2022-11-15T06:28:43.148Z,79.00
2022-11-15T06:29:43.900Z,77.08
2022-11-15T06:30:43.322Z,78.93
2022-11-15T06:31:43.360Z,79.07
2022-11-15T06:32:43.086Z,77.67
2022-11-15T06:33:43.092Z,78.81
2022-11-15T06:34:43.205Z,78.25
2022-11-15T06:35:43.076Z,78.77
2022-11-15T06:36:43.573Z,79.69
2022-11-15T06:37:44.226Z,79.53
2022-11-15T06:38:43.028Z,77.95
2022-11-15T06:39:43.033Z,78.74
2022-11-15T06:40:43.019Z,79.45
2022-11-15T06:41:43.015Z,77.89
2022-11-15T06:42:43.207Z,77.84
2022-11-15T06:43:44.445Z,78.96
2022-11-15T06:44:46.651Z,77.99
2022-11-15T06:45:42.956Z,79.98
2022-11-15T06:46:43.914Z,78.27
2022-11-15T06:47:44.024Z,78.25
2022-11-15T06:48:43.027Z,78.37
2022-11-15T06:49:42.973Z,78.18
2022-11-15T06:50:42.915Z,78.81
2022-11-15T06:51:42.900Z,78.72
2022-11-15T06:52:43.233Z,77.17
2022-11-15T06:53:45.358Z,78.15
2022-11-15T06:54:44.095Z,78.77
2022-11-15T06:55:44.921Z,77.27
2022-11-15T06:56:42.843Z,76.46
2022-11-15T06:57:45.170Z,77.16
2022-11-15T06:58:42.870Z,77.70
2022-11-15T06:59:44.925Z,78.13
2022-11-15T07:00:45.555Z,78.57
2022-11-15T07:01:44.369Z,77.55
2022-11-15T07:02:44.657Z,78.71
2022-11-15T07:03:42.765Z,77.65
2022-11-15T07:04:46.065Z,79.40
2022-11-15T07:05:44.745Z,77.02
2022-11-15T07:06:44.988Z,77.55
2022-11-15T07:07:43.715Z,77.53
2022-11-15T07:08:43.714Z,78.00
2022-11-15T07:09:42.882Z,79.31
2022-11-15T07:10:45.106Z,78.54
2022-11-15T07:11:43.661Z,78.99
2022-11-15T07:12:43.657Z,77.80
2022-11-15T07:13:43.943Z,79.13
2022-11-15T07:14:44.901Z,79.51
2022-11-15T07:15:43.637Z,78.42
2022-11-15T07:16:44.887Z,77.90
2022-11-15T07:17:47.339Z,78.34
2022-11-15T07:18:45.926Z,77.27
2022-11-15T07:19:43.827Z,79.22
2022-11-15T07:20:42.587Z,75.10
2022-11-15T07:21:47.270Z,76.21
2022-11-15T07:22:43.654Z,77.74
2022-11-15T07:23:42.558Z,77.43
2022-11-15T07:24:42.544Z,76.60
2022-11-15T07:25:47.087Z,79.06
2022-11-15T07:26:42.999Z,76.91
2022-11-15T07:27:42.502Z,77.83
2022-11-15T07:28:42.494Z,78.38
2022-11-15T07:29:43.250Z,78.34
2022-11-15T07:30:45.363Z,74.90
2022-11-15T07:31:44.532Z,76.16
2022-11-15T07:32:43.172Z,77.66
2022-11-15T07:33:45.391Z,78.85
2022-11-15T07:34:42.752Z,78.79
2022-11-15T07:35:44.192Z,78.31
2022-11-15T07:36:43.476Z,78.30
2022-11-15T07:37:44.611Z,76.69
2022-11-15T07:38:43.407Z,77.89
2022-11-15T07:39:44.368Z,77.80
2022-11-15T07:40:43.367Z,77.33
2022-11-15T07:41:43.809Z,79.91
2022-11-15T07:42:44.403Z,77.71
2022-11-15T07:43:42.344Z,77.83
2022-11-15T07:44:42.337Z,76.77
2022-11-15T07:45:42.335Z,77.01
2022-11-15T07:46:44.437Z,77.38
2022-11-15T07:47:42.507Z,77.03
2022-11-15T07:48:44.856Z,78.22
2022-11-15T07:49:45.447Z,79.67
2022-11-15T07:50:44.324Z,75.65
2022-11-15T07:51:43.549Z,77.13
2022-11-15T07:52:42.416Z,76.19
2022-11-15T07:53:43.438Z,77.38
2022-11-15T07:54:46.886Z,75.13
2022-11-15T07:55:44.892Z,74.71
2022-11-15T07:56:44.791Z,77.40
2022-11-15T07:57:44.808Z,76.21
2022-11-15T07:58:44.922Z,77.17
2022-11-15T07:59:44.784Z,77.87
2022-11-15T08:00:42.149Z,74.82
2022-11-15T08:01:46.861Z,76.83
2022-11-15T08:02:43.627Z,77.38
2022-11-15T08:03:46.120Z,78.40
2022-11-15T08:04:44.877Z,75.54
2022-11-15T08:05:42.111Z,76.45
2022-11-15T08:06:44.853Z,74.92
2022-11-15T08:07:42.868Z,75.81
2022-11-15T08:08:42.118Z,76.77
2022-11-15T08:09:43.060Z,74.72
2022-11-15T08:10:42.050Z,77.73
2022-11-15T08:11:42.029Z,76.57
2022-11-15T08:12:42.059Z,75.70
2022-11-15T08:13:42.019Z,76.28
2022-11-15T08:14:44.338Z,75.69
2022-11-15T08:15:44.350Z,75.25
2022-11-15T08:16:43.121Z,76.80
2022-11-15T08:17:43.862Z,76.56
2022-11-15T08:18:42.017Z,75.97
2022-11-15T08:19:44.266Z,73.52
2022-11-15T08:20:44.192Z,75.60
2022-11-15T08:21:41.946Z,74.97
2022-11-15T08:22:43.962Z,76.80
2022-11-15T08:23:44.910Z,76.70
2022-11-15T08:24:46.625Z,76.24
2022-11-15T08:25:46.090Z,75.57
2022-11-15T08:26:42.858Z,74.02
2022-11-15T08:27:42.875Z,76.98
2022-11-15T08:28:41.854Z,75.91
2022-11-15T08:29:43.239Z,75.13
2022-11-15T08:30:41.822Z,74.18
2022-11-15T08:31:43.142Z,75.00
2022-11-15T08:32:43.146Z,74.22
2022-11-15T08:33:41.784Z,74.72
2022-11-15T08:34:41.853Z,73.06
2022-11-15T08:35:44.486Z,74.06
2022-11-15T08:36:46.027Z,71.91
2022-11-15T08:37:43.760Z,74.10
2022-11-15T08:38:41.748Z,75.44
2022-11-15T08:39:41.722Z,73.86
2022-11-15T08:40:43.302Z,75.69
2022-11-15T08:41:41.939Z,77.31
2022-11-15T08:42:41.726Z,75.00
2022-11-15T08:43:41.728Z,75.18
2022-11-15T08:44:41.709Z,74.38
2022-11-15T08:45:41.682Z,75.66
2022-11-15T08:46:41.655Z,73.39
2022-11-15T08:47:41.642Z,74.39
2022-11-15T08:48:41.671Z,73.41
2022-11-15T08:49:41.634Z,74.04
2022-11-15T08:50:41.836Z,72.47
2022-11-15T08:51:41.595Z,74.60
2022-11-15T08:52:41.600Z,75.82
2022-11-15T08:53:41.586Z,74.92
2022-11-15T08:54:41.580Z,75.22
2022-11-15T08:55:41.564Z,75.70
2022-11-15T08:56:41.582Z,73.99
2022-11-15T08:57:41.556Z,76.23
2022-11-15T08:58:41.535Z,76.84
2022-11-15T08:59:41.564Z,76.00
2022-11-15T09:00:41.493Z,74.61
2022-11-15T09:01:41.567Z,73.63
2022-11-15T09:02:41.488Z,73.93
2022-11-15T09:03:41.468Z,72.27
2022-11-15T09:04:41.456Z,74.60
2022-11-15T09:05:41.513Z,75.71
2022-11-15T09:06:43.288Z,77.14
2022-11-15T09:07:42.452Z,75.18
2022-11-15T09:08:47.347Z,74.36
2022-11-15T09:09:43.421Z,73.45
2022-11-15T09:10:41.428Z,75.32
2022-11-15T09:11:41.432Z,72.85
2022-11-15T09:12:41.376Z,75.80
2022-11-15T09:13:41.376Z,73.12
2022-11-15T09:14:41.904Z,73.20
2022-11-15T09:15:41.347Z,74.70
2022-11-15T09:16:41.372Z,76.20
2022-11-15T09:17:41.313Z,75.31
2022-11-15T09:18:41.307Z,74.27
2022-11-15T09:19:41.288Z,76.73
2022-11-15T09:20:41.291Z,75.31
2022-11-15T09:21:41.306Z,72.34
2022-11-15T09:22:41.261Z,74.97
2022-11-15T09:23:41.291Z,72.62
2022-11-15T09:24:41.230Z,75.56
2022-11-15T09:25:41.320Z,74.44
2022-11-15T09:26:41.220Z,74.39
2022-11-15T09:27:41.249Z,72.98
2022-11-15T09:28:41.215Z,73.71
2022-11-15T09:29:41.187Z,73.51
2022-11-15T09:30:41.196Z,75.37
2022-11-15T09:31:41.153Z,74.18
2022-11-15T09:32:41.135Z,72.68
2022-11-15T09:33:41.182Z,74.99
2022-11-15T09:34:41.139Z,72.07
2022-11-15T09:35:41.119Z,74.10
2022-11-15T09:36:41.102Z,72.81
2022-11-15T09:37:41.101Z,74.20
2022-11-15T09:38:41.086Z,74.29
2022-11-15T09:39:41.086Z,71.92
2022-11-15T09:40:41.151Z,74.07
2022-11-15T09:41:41.049Z,73.44
2022-11-15T09:42:41.043Z,74.12
2022-11-15T09:43:41.054Z,73.28
2022-11-15T09:44:41.039Z,75.05
2022-11-15T09:45:41.029Z,74.41
2022-11-15T09:46:44.804Z,75.28
2022-11-15T09:47:43.019Z,75.68
2022-11-15T09:48:41.002Z,73.39
2022-11-15T09:49:40.958Z,73.94
2022-11-15T09:50:40.974Z,71.42
2022-11-15T09:51:44.442Z,75.32
2022-11-15T09:52:45.055Z,73.09
2022-11-15T09:54:37.543Z,73.94
2022-11-15T09:54:53.388Z,73.65
2022-11-15T09:55:45.560Z,74.01
2022-11-15T09:56:40.901Z,76.02
2022-11-15T09:57:41.804Z,75.49
2022-11-15T09:58:41.228Z,74.24
2022-11-15T09:59:40.898Z,73.16
2022-11-15T10:00:47.233Z,74.51
2022-11-15T10:01:40.951Z,75.91
2022-11-15T10:02:41.251Z,72.98
2022-11-15T10:03:43.157Z,72.92
2022-11-15T10:04:41.670Z,72.91
2022-11-15T10:05:40.815Z,74.27
2022-11-15T10:06:42.216Z,74.87
2022-11-15T10:07:40.755Z,73.25
2022-11-15T10:08:41.372Z,73.70
2022-11-15T10:09:40.754Z,72.82
2022-11-15T10:10:40.768Z,75.31
2022-11-15T10:11:40.717Z,74.02
2022-11-15T10:12:41.748Z,76.79
2022-11-15T10:13:42.371Z,75.25
2022-11-15T10:14:40.671Z,75.69
2022-11-15T10:15:43.059Z,76.43
2022-11-15T10:16:41.968Z,75.49
2022-11-15T10:17:43.197Z,73.92
2022-11-15T10:18:40.631Z,76.02
2022-11-15T10:19:41.751Z,75.88
2022-11-15T10:20:40.739Z,74.71
2022-11-15T10:21:41.656Z,75.06
2022-11-15T10:22:41.560Z,71.88
2022-11-15T10:23:41.572Z,72.80
2022-11-15T10:24:40.856Z,75.15
2022-11-15T10:25:40.560Z,75.91
2022-11-15T10:26:40.633Z,75.81
2022-11-15T10:27:40.532Z,76.35
2022-11-15T10:28:40.527Z,75.54
2022-11-15T10:29:41.712Z,77.69
2022-11-15T10:30:40.731Z,77.51
2022-11-15T10:31:40.513Z,79.45
2022-11-15T10:32:40.467Z,76.63
2022-11-15T10:33:40.471Z,76.15
2022-11-15T10:34:40.469Z,74.19
2022-11-15T10:35:40.485Z,75.14
2022-11-15T10:36:43.911Z,77.75
2022-11-15T10:37:41.133Z,75.13
2022-11-15T10:38:40.661Z,75.75
2022-11-15T10:39:40.409Z,74.13
2022-11-15T10:40:40.398Z,74.99
2022-11-15T10:41:41.741Z,74.45
2022-11-15T10:42:40.359Z,75.96
2022-11-15T10:43:40.352Z,76.59
2022-11-15T10:44:41.465Z,76.88
2022-11-15T10:45:41.226Z,76.71
2022-11-15T10:46:46.700Z,76.16
2022-11-15T10:47:41.337Z,74.24
2022-11-15T10:48:42.045Z,76.89
2022-11-15T10:49:41.660Z,75.88
2022-11-15T10:50:40.689Z,76.09
2022-11-15T10:51:40.298Z,77.36
2022-11-15T10:52:40.313Z,75.63
2022-11-15T10:53:42.750Z,76.35
2022-11-15T10:54:40.235Z,75.02
2022-11-15T10:55:40.474Z,74.90
2022-11-15T10:56:40.241Z,74.09
2022-11-15T10:57:40.953Z,73.32
2022-11-15T10:58:40.788Z,73.87
2022-11-15T10:59:40.189Z,77.57
2022-11-15T11:00:40.235Z,76.63
2022-11-15T11:01:40.184Z,74.96
2022-11-15T11:02:40.163Z,76.17
2022-11-15T11:03:40.140Z,73.15
2022-11-15T11:04:41.151Z,77.18
2022-11-15T11:05:42.538Z,74.61
2022-11-15T11:06:41.114Z,76.29
2022-11-15T11:07:40.282Z,74.05
2022-11-15T11:08:40.759Z,76.03
2022-11-15T11:09:40.113Z,77.46
2022-11-15T11:11:01.277Z,76.49
2022-11-15T11:11:42.822Z,74.47
2022-11-15T11:12:40.634Z,73.21
2022-11-15T11:13:40.430Z,75.35
2022-11-15T11:14:41.446Z,76.19
2022-11-15T11:15:40.017Z,76.69
2022-11-15T11:16:40.012Z,75.32
2022-11-15T11:17:40.871Z,75.75
2022-11-15T11:18:39.971Z,77.20
2022-11-15T11:19:39.994Z,77.00
2022-11-15T11:20:39.982Z,74.02
2022-11-15T11:21:41.151Z,75.77
2022-11-15T11:22:39.949Z,74.06
2022-11-15T11:23:40.505Z,76.94
2022-11-15T11:24:39.906Z,76.29
2022-11-15T11:25:42.683Z,75.74
2022-11-15T11:26:39.894Z,75.84
2022-11-15T11:27:39.898Z,76.38
2022-11-15T11:28:39.906Z,76.57
2022-11-15T11:29:39.851Z,76.24
2022-11-15T11:30:39.900Z,75.45
2022-11-15T11:31:44.172Z,77.19
2022-11-15T11:32:41.211Z,75.04
2022-11-15T11:33:41.092Z,76.26
2022-11-15T11:34:40.031Z,74.61
2022-11-15T11:35:39.827Z,75.73
2022-11-15T11:36:39.778Z,74.60
2022-11-15T11:37:42.875Z,76.26
2022-11-15T11:38:39.760Z,76.31
2022-11-15T11:39:39.770Z,75.45
2022-11-15T11:40:40.773Z,74.04
2022-11-15T11:41:39.726Z,74.55
2022-11-15T11:42:39.712Z,75.41
2022-11-15T11:43:40.062Z,74.16
2022-11-15T11:44:39.699Z,76.60
2022-11-15T11:45:46.137Z,75.11
2022-11-15T11:46:41.936Z,75.21
2022-11-15T11:47:39.995Z,76.86
2022-11-15T11:48:40.670Z,73.87
2022-11-15T11:49:39.635Z,74.81
2022-11-15T11:50:42.056Z,77.01
2022-11-15T11:51:39.620Z,74.55
2022-11-15T11:52:39.675Z,74.90
2022-11-15T11:53:39.600Z,77.61
2022-11-15T11:54:39.598Z,75.90
2022-11-15T11:55:39.634Z,75.77
2022-11-15T11:56:39.579Z,74.10
2022-11-15T11:57:39.552Z,75.15
2022-11-15T11:58:41.991Z,75.38
2022-11-15T11:59:39.591Z,75.08
2022-11-15T12:00:39.543Z,76.07
2022-11-15T12:01:41.812Z,76.21
2022-11-15T12:02:39.705Z,76.62
2022-11-15T12:03:39.515Z,77.17
2022-11-15T12:04:39.545Z,75.80
2022-11-15T12:05:45.248Z,75.21
2022-11-15T12:06:42.016Z,76.35
2022-11-15T12:07:43.661Z,76.28
2022-11-15T12:08:42.071Z,76.80
2022-11-15T12:09:40.891Z,74.88
2022-11-15T12:10:39.464Z,74.52
2022-11-15T12:11:39.403Z,75.35
2022-11-15T12:12:40.896Z,77.49
2022-11-15T12:13:40.621Z,77.97
2022-11-15T12:14:40.641Z,75.58
2022-11-15T12:15:39.344Z,76.58
2022-11-15T12:16:41.667Z,77.67
2022-11-15T12:17:42.241Z,76.28
2022-11-15T12:18:39.316Z,76.60
2022-11-15T12:19:40.734Z,77.43
2022-11-15T12:20:39.410Z,76.99
2022-11-15T12:21:42.169Z,75.89
2022-11-15T12:22:39.277Z,76.51
2022-11-15T12:23:43.074Z,76.56
2022-11-15T12:24:44.084Z,75.84
2022-11-15T12:25:42.063Z,75.18
2022-11-15T12:26:39.393Z,76.60
2022-11-15T12:27:41.440Z,75.82
2022-11-15T12:28:58.344Z,76.12
2022-11-15T12:29:40.208Z,77.14
2022-11-15T12:30:39.243Z,76.70
2022-11-15T12:31:39.472Z,75.95
2022-11-15T12:32:41.482Z,75.62
2022-11-15T12:33:39.242Z,77.14
2022-11-15T12:34:42.493Z,76.95
2022-11-15T12:35:40.593Z,77.84
2022-11-15T12:36:39.244Z,76.53
2022-11-15T12:37:39.169Z,77.12
2022-11-15T12:38:39.166Z,75.38
2022-11-15T12:39:39.455Z,74.22
2022-11-15T12:40:40.075Z,76.55
2022-11-15T12:41:40.594Z,75.45
2022-11-15T12:42:42.783Z,76.38
2022-11-15T12:43:41.057Z,76.63
2022-11-15T12:44:40.042Z,77.68
2022-11-15T12:45:39.138Z,76.55
2022-11-15T12:46:39.018Z,76.09
2022-11-15T12:47:39.019Z,77.73
2022-11-15T12:48:40.626Z,78.01
2022-11-15T12:49:40.050Z,76.34
2022-11-15T12:50:41.162Z,74.86
2022-11-15T12:51:39.438Z,76.56
2022-11-15T12:52:38.947Z,76.56